sensor_id;sensor_type;location;lat;lon;timestamp;P1;durP1;ratioP1;P2;durP2;ratioP2
15679;SDS011;15488;48.114;11.532;2023-05-27T00:02:09;9.93;;;6.70;;
15679;SDS011;15488;48.114;11.532;2023-05-27T00:04:37;9.47;;;6.77;;
15679;SDS011;15488;48.114;11.532;2023-05-27T00:07:06;9.30;;;6.90;;
15679;SDS011;15488;48.114;11.532;2023-05-27T00:09:33;9.47;;;6.97;;
15679;SDS011;15488;48.114;11.532;2023-05-27T00:12:01;8.97;;;6.30;;
15679;SDS011;15488;48.114;11.532;2023-05-27T00:14:28;8.73;;;7.00;;
15679;SDS011;15488;48.114;11.532;2023-05-27T00:16:56;8.13;;;6.90;;
15679;SDS011;15488;48.114;11.532;2023-05-27T00:19:24;8.70;;;6.70;;
15679;SDS011;15488;48.114;11.532;2023-05-27T00:21:51;7.60;;;6.17;;
15679;SDS011;15488;48.114;11.532;2023-05-27T00:24:21;7.30;;;6.37;;
15679;SDS011;15488;48.114;11.532;2023-05-27T00:26:49;10.60;;;7.17;;
15679;SDS011;15488;48.114;11.532;2023-05-27T00:29:16;9.10;;;6.97;;
15679;SDS011;15488;48.114;11.532;2023-05-27T00:31:44;7.83;;;6.47;;
15679;SDS011;15488;48.114;11.532;2023-05-27T00:34:11;8.30;;;6.90;;
15679;SDS011;15488;48.114;11.532;2023-05-27T00:36:39;8.23;;;7.10;;
15679;SDS011;15488;48.114;11.532;2023-05-27T00:39:06;8.77;;;7.07;;
15679;SDS011;15488;48.114;11.532;2023-05-27T00:41:35;10.57;;;7.10;;
15679;SDS011;15488;48.114;11.532;2023-05-27T00:44:02;7.90;;;6.63;;
15679;SDS011;15488;48.114;11.532;2023-05-27T00:46:30;9.93;;;6.80;;
15679;SDS011;15488;48.114;11.532;2023-05-27T00:48:57;9.00;;;7.03;;
15679;SDS011;15488;48.114;11.532;2023-05-27T00:51:25;9.57;;;6.90;;
15679;SDS011;15488;48.114;11.532;2023-05-27T00:53:52;8.33;;;7.13;;
15679;SDS011;15488;48.114;11.532;2023-05-27T00:56:20;9.10;;;7.00;;
15679;SDS011;15488;48.114;11.532;2023-05-27T00:58:49;8.13;;;7.03;;
15679;SDS011;15488;48.114;11.532;2023-05-27T01:01:17;9.83;;;7.43;;
15679;SDS011;15488;48.114;11.532;2023-05-27T01:03:45;7.90;;;6.90;;
15679;SDS011;15488;48.114;11.532;2023-05-27T01:06:15;8.07;;;6.93;;
15679;SDS011;15488;48.114;11.532;2023-05-27T01:08:51;10.50;;;7.27;;
15679;SDS011;15488;48.114;11.532;2023-05-27T01:11:26;8.87;;;7.07;;
15679;SDS011;15488;48.114;11.532;2023-05-27T01:14:00;8.67;;;6.93;;
15679;SDS011;15488;48.114;11.532;2023-05-27T01:16:35;7.80;;;6.87;;
15679;SDS011;15488;48.114;11.532;2023-05-27T01:19:05;9.77;;;7.23;;
15679;SDS011;15488;48.114;11.532;2023-05-27T01:21:39;8.27;;;6.77;;
15679;SDS011;15488;48.114;11.532;2023-05-27T01:24:11;8.07;;;6.67;;
15679;SDS011;15488;48.114;11.532;2023-05-27T01:26:38;11.03;;;7.30;;
15679;SDS011;15488;48.114;11.532;2023-05-27T01:29:07;9.53;;;7.40;;
15679;SDS011;15488;48.114;11.532;2023-05-27T01:31:38;9.50;;;7.00;;
15679;SDS011;15488;48.114;11.532;2023-05-27T01:34:13;8.17;;;6.50;;
15679;SDS011;15488;48.114;11.532;2023-05-27T01:36:45;8.90;;;7.00;;
15679;SDS011;15488;48.114;11.532;2023-05-27T01:39:18;10.40;;;7.70;;
15679;SDS011;15488;48.114;11.532;2023-05-27T01:41:46;8.73;;;7.03;;
15679;SDS011;15488;48.114;11.532;2023-05-27T01:44:14;8.47;;;7.10;;
15679;SDS011;15488;48.114;11.532;2023-05-27T01:46:42;9.30;;;7.00;;
15679;SDS011;15488;48.114;11.532;2023-05-27T01:49:10;9.07;;;7.10;;
15679;SDS011;15488;48.114;11.532;2023-05-27T01:51:38;9.77;;;7.03;;
15679;SDS011;15488;48.114;11.532;2023-05-27T01:54:05;10.23;;;7.37;;
15679;SDS011;15488;48.114;11.532;2023-05-27T01:56:34;8.37;;;7.43;;
15679;SDS011;15488;48.114;11.532;2023-05-27T01:59:02;10.97;;;8.23;;
15679;SDS011;15488;48.114;11.532;2023-05-27T02:01:29;9.67;;;7.67;;
15679;SDS011;15488;48.114;11.532;2023-05-27T02:03:58;9.93;;;7.27;;
15679;SDS011;15488;48.114;11.532;2023-05-27T02:06:26;8.90;;;7.47;;
15679;SDS011;15488;48.114;11.532;2023-05-27T02:08:53;10.03;;;7.23;;
15679;SDS011;15488;48.114;11.532;2023-05-27T02:11:21;8.33;;;7.07;;
15679;SDS011;15488;48.114;11.532;2023-05-27T02:13:50;8.17;;;7.10;;
15679;SDS011;15488;48.114;11.532;2023-05-27T02:16:18;11.80;;;7.43;;
15679;SDS011;15488;48.114;11.532;2023-05-27T02:18:47;10.07;;;7.37;;
15679;SDS011;15488;48.114;11.532;2023-05-27T02:21:14;9.03;;;7.40;;
15679;SDS011;15488;48.114;11.532;2023-05-27T02:23:42;9.07;;;6.70;;
15679;SDS011;15488;48.114;11.532;2023-05-27T02:26:09;9.03;;;7.30;;
15679;SDS011;15488;48.114;11.532;2023-05-27T02:28:37;9.37;;;6.73;;
15679;SDS011;15488;48.114;11.532;2023-05-27T02:31:06;9.07;;;7.00;;
15679;SDS011;15488;48.114;11.532;2023-05-27T02:33:34;7.57;;;6.83;;
15679;SDS011;15488;48.114;11.532;2023-05-27T02:36:01;9.80;;;7.57;;
15679;SDS011;15488;48.114;11.532;2023-05-27T02:38:29;10.53;;;7.33;;
15679;SDS011;15488;48.114;11.532;2023-05-27T02:40:56;8.30;;;6.77;;
15679;SDS011;15488;48.114;11.532;2023-05-27T02:43:23;7.57;;;6.77;;
15679;SDS011;15488;48.114;11.532;2023-05-27T02:45:51;8.47;;;7.30;;
15679;SDS011;15488;48.114;11.532;2023-05-27T02:48:20;8.43;;;7.13;;
15679;SDS011;15488;48.114;11.532;2023-05-27T02:50:47;7.57;;;6.80;;
15679;SDS011;15488;48.114;11.532;2023-05-27T02:53:14;8.60;;;7.07;;
15679;SDS011;15488;48.114;11.532;2023-05-27T02:55:42;9.83;;;6.83;;
15679;SDS011;15488;48.114;11.532;2023-05-27T02:58:09;8.37;;;7.13;;
15679;SDS011;15488;48.114;11.532;2023-05-27T03:00:37;7.73;;;6.93;;
15679;SDS011;15488;48.114;11.532;2023-05-27T03:03:06;9.40;;;7.20;;
15679;SDS011;15488;48.114;11.532;2023-05-27T03:05:35;8.20;;;6.67;;
15679;SDS011;15488;48.114;11.532;2023-05-27T03:08:02;8.03;;;6.97;;
15679;SDS011;15488;48.114;11.532;2023-05-27T03:10:31;9.63;;;7.43;;
15679;SDS011;15488;48.114;11.532;2023-05-27T03:12:58;8.37;;;7.37;;
15679;SDS011;15488;48.114;11.532;2023-05-27T03:15:26;8.90;;;7.27;;
15679;SDS011;15488;48.114;11.532;2023-05-27T03:17:55;8.47;;;7.17;;
15679;SDS011;15488;48.114;11.532;2023-05-27T03:20:22;7.90;;;7.10;;
15679;SDS011;15488;48.114;11.532;2023-05-27T03:22:51;7.40;;;6.70;;
15679;SDS011;15488;48.114;11.532;2023-05-27T03:25:18;9.63;;;7.43;;
15679;SDS011;15488;48.114;11.532;2023-05-27T03:27:46;8.10;;;6.73;;
15679;SDS011;15488;48.114;11.532;2023-05-27T03:30:13;8.50;;;7.43;;
15679;SDS011;15488;48.114;11.532;2023-05-27T03:32:41;9.43;;;7.40;;
15679;SDS011;15488;48.114;11.532;2023-05-27T03:35:08;8.53;;;7.60;;
15679;SDS011;15488;48.114;11.532;2023-05-27T03:37:36;12.13;;;7.87;;
15679;SDS011;15488;48.114;11.532;2023-05-27T03:40:05;9.00;;;7.07;;
15679;SDS011;15488;48.114;11.532;2023-05-27T03:42:34;8.03;;;7.20;;
15679;SDS011;15488;48.114;11.532;2023-05-27T03:45:02;10.30;;;7.57;;
15679;SDS011;15488;48.114;11.532;2023-05-27T03:47:30;7.83;;;6.93;;
15679;SDS011;15488;48.114;11.532;2023-05-27T03:49:59;11.23;;;7.30;;
15679;SDS011;15488;48.114;11.532;2023-05-27T03:52:27;10.50;;;7.07;;
15679;SDS011;15488;48.114;11.532;2023-05-27T03:54:55;8.83;;;7.13;;
15679;SDS011;15488;48.114;11.532;2023-05-27T03:57:23;8.67;;;7.30;;
15679;SDS011;15488;48.114;11.532;2023-05-27T03:59:51;8.87;;;6.93;;
15679;SDS011;15488;48.114;11.532;2023-05-27T04:02:18;9.30;;;7.40;;
15679;SDS011;15488;48.114;11.532;2023-05-27T04:04:46;9.37;;;7.03;;
15679;SDS011;15488;48.114;11.532;2023-05-27T04:07:13;7.90;;;6.80;;
15679;SDS011;15488;48.114;11.532;2023-05-27T04:09:43;8.10;;;6.80;;
15679;SDS011;15488;48.114;11.532;2023-05-27T04:12:10;8.47;;;7.00;;
15679;SDS011;15488;48.114;11.532;2023-05-27T04:14:39;9.63;;;6.63;;
15679;SDS011;15488;48.114;11.532;2023-05-27T04:17:06;9.17;;;6.90;;
15679;SDS011;15488;48.114;11.532;2023-05-27T04:19:34;8.60;;;7.23;;
15679;SDS011;15488;48.114;11.532;2023-05-27T04:22:02;10.00;;;6.97;;
15679;SDS011;15488;48.114;11.532;2023-05-27T04:24:30;10.60;;;7.23;;
15679;SDS011;15488;48.114;11.532;2023-05-27T04:26:57;8.93;;;6.63;;
15679;SDS011;15488;48.114;11.532;2023-05-27T04:29:26;6.97;;;6.27;;
15679;SDS011;15488;48.114;11.532;2023-05-27T04:31:55;7.97;;;6.87;;
15679;SDS011;15488;48.114;11.532;2023-05-27T04:34:22;9.17;;;6.93;;
15679;SDS011;15488;48.114;11.532;2023-05-27T04:36:50;8.10;;;6.97;;
15679;SDS011;15488;48.114;11.532;2023-05-27T04:39:17;8.13;;;6.50;;
15679;SDS011;15488;48.114;11.532;2023-05-27T04:41:45;9.17;;;7.30;;
15679;SDS011;15488;48.114;11.532;2023-05-27T04:44:13;6.93;;;6.23;;
15679;SDS011;15488;48.114;11.532;2023-05-27T04:46:42;9.83;;;7.10;;
15679;SDS011;15488;48.114;11.532;2023-05-27T04:49:11;9.23;;;7.10;;
15679;SDS011;15488;48.114;11.532;2023-05-27T04:51:38;8.20;;;6.57;;
15679;SDS011;15488;48.114;11.532;2023-05-27T04:54:06;7.77;;;6.93;;
15679;SDS011;15488;48.114;11.532;2023-05-27T04:56:34;8.17;;;6.40;;
15679;SDS011;15488;48.114;11.532;2023-05-27T04:59:02;8.57;;;6.33;;
15679;SDS011;15488;48.114;11.532;2023-05-27T05:01:30;9.53;;;6.60;;
15679;SDS011;15488;48.114;11.532;2023-05-27T05:04:15;9.53;;;6.50;;
15679;SDS011;15488;48.114;11.532;2023-05-27T05:06:42;8.30;;;6.60;;
15679;SDS011;15488;48.114;11.532;2023-05-27T05:09:10;8.57;;;6.20;;
15679;SDS011;15488;48.114;11.532;2023-05-27T05:11:37;7.70;;;6.10;;
15679;SDS011;15488;48.114;11.532;2023-05-27T05:14:05;8.57;;;6.20;;
15679;SDS011;15488;48.114;11.532;2023-05-27T05:16:32;8.17;;;6.13;;
15679;SDS011;15488;48.114;11.532;2023-05-27T05:19:00;7.00;;;6.27;;
15679;SDS011;15488;48.114;11.532;2023-05-27T05:21:28;9.13;;;6.40;;
15679;SDS011;15488;48.114;11.532;2023-05-27T05:23:56;8.73;;;6.27;;
15679;SDS011;15488;48.114;11.532;2023-05-27T05:26:23;7.40;;;5.93;;
15679;SDS011;15488;48.114;11.532;2023-05-27T05:28:51;8.00;;;6.30;;
15679;SDS011;15488;48.114;11.532;2023-05-27T05:31:18;8.47;;;6.07;;
15679;SDS011;15488;48.114;11.532;2023-05-27T05:33:46;7.33;;;5.80;;
15679;SDS011;15488;48.114;11.532;2023-05-27T05:36:13;8.40;;;5.73;;
15679;SDS011;15488;48.114;11.532;2023-05-27T05:38:42;9.70;;;5.80;;
15679;SDS011;15488;48.114;11.532;2023-05-27T05:41:09;7.70;;;5.83;;
15679;SDS011;15488;48.114;11.532;2023-05-27T05:43:37;8.60;;;6.03;;
15679;SDS011;15488;48.114;11.532;2023-05-27T05:46:04;8.87;;;5.87;;
15679;SDS011;15488;48.114;11.532;2023-05-27T05:48:32;6.87;;;5.70;;
15679;SDS011;15488;48.114;11.532;2023-05-27T05:50:59;7.63;;;5.90;;
15679;SDS011;15488;48.114;11.532;2023-05-27T05:53:27;7.17;;;5.87;;
15679;SDS011;15488;48.114;11.532;2023-05-27T05:55:58;8.17;;;6.00;;
15679;SDS011;15488;48.114;11.532;2023-05-27T05:58:25;7.00;;;5.63;;
15679;SDS011;15488;48.114;11.532;2023-05-27T06:00:53;7.50;;;5.83;;
15679;SDS011;15488;48.114;11.532;2023-05-27T06:03:20;9.87;;;6.03;;
15679;SDS011;15488;48.114;11.532;2023-05-27T06:05:47;8.00;;;5.83;;
15679;SDS011;15488;48.114;11.532;2023-05-27T06:08:15;7.23;;;5.67;;
15679;SDS011;15488;48.114;11.532;2023-05-27T06:10:42;9.43;;;6.20;;
15679;SDS011;15488;48.114;11.532;2023-05-27T06:13:11;8.70;;;6.00;;
15679;SDS011;15488;48.114;11.532;2023-05-27T06:15:39;6.93;;;5.60;;
15679;SDS011;15488;48.114;11.532;2023-05-27T06:18:06;8.73;;;5.60;;
15679;SDS011;15488;48.114;11.532;2023-05-27T06:20:34;6.83;;;5.70;;
15679;SDS011;15488;48.114;11.532;2023-05-27T06:23:01;7.30;;;5.63;;
15679;SDS011;15488;48.114;11.532;2023-05-27T06:25:29;8.73;;;5.80;;
15679;SDS011;15488;48.114;11.532;2023-05-27T06:27:56;7.00;;;5.70;;
15679;SDS011;15488;48.114;11.532;2023-05-27T06:30:25;6.83;;;5.40;;
15679;SDS011;15488;48.114;11.532;2023-05-27T06:32:53;7.73;;;5.60;;
15679;SDS011;15488;48.114;11.532;2023-05-27T06:35:20;8.47;;;5.50;;
15679;SDS011;15488;48.114;11.532;2023-05-27T06:37:48;7.87;;;5.37;;
15679;SDS011;15488;48.114;11.532;2023-05-27T06:40:15;8.10;;;5.30;;
15679;SDS011;15488;48.114;11.532;2023-05-27T06:42:43;7.37;;;5.20;;
15679;SDS011;15488;48.114;11.532;2023-05-27T06:45:10;7.40;;;4.90;;
15679;SDS011;15488;48.114;11.532;2023-05-27T06:47:39;7.50;;;5.30;;
15679;SDS011;15488;48.114;11.532;2023-05-27T06:50:07;7.27;;;5.10;;
15679;SDS011;15488;48.114;11.532;2023-05-27T06:52:35;11.17;;;5.00;;
15679;SDS011;15488;48.114;11.532;2023-05-27T06:55:02;8.40;;;4.93;;
15679;SDS011;15488;48.114;11.532;2023-05-27T06:57:30;6.60;;;5.20;;
15679;SDS011;15488;48.114;11.532;2023-05-27T06:59:58;8.93;;;5.33;;
15679;SDS011;15488;48.114;11.532;2023-05-27T07:02:25;21.23;;;5.80;;
15679;SDS011;15488;48.114;11.532;2023-05-27T07:04:54;9.53;;;5.10;;
15679;SDS011;15488;48.114;11.532;2023-05-27T07:07:21;7.33;;;4.83;;
15679;SDS011;15488;48.114;11.532;2023-05-27T07:09:49;7.40;;;5.00;;
15679;SDS011;15488;48.114;11.532;2023-05-27T07:12:16;8.47;;;5.03;;
15679;SDS011;15488;48.114;11.532;2023-05-27T07:14:44;9.07;;;4.97;;
15679;SDS011;15488;48.114;11.532;2023-05-27T07:17:11;8.50;;;4.90;;
15679;SDS011;15488;48.114;11.532;2023-05-27T07:19:39;7.37;;;4.60;;
15679;SDS011;15488;48.114;11.532;2023-05-27T07:22:08;8.07;;;4.63;;
15679;SDS011;15488;48.114;11.532;2023-05-27T07:24:35;8.17;;;4.40;;
15679;SDS011;15488;48.114;11.532;2023-05-27T07:27:03;7.03;;;4.53;;
15679;SDS011;15488;48.114;11.532;2023-05-27T07:29:32;7.03;;;4.47;;
15679;SDS011;15488;48.114;11.532;2023-05-27T07:31:59;6.00;;;4.40;;
15679;SDS011;15488;48.114;11.532;2023-05-27T07:34:27;8.50;;;4.57;;
15679;SDS011;15488;48.114;11.532;2023-05-27T07:36:55;6.53;;;4.47;;
15679;SDS011;15488;48.114;11.532;2023-05-27T07:39:24;6.87;;;4.70;;
15679;SDS011;15488;48.114;11.532;2023-05-27T07:41:51;8.37;;;4.90;;
15679;SDS011;15488;48.114;11.532;2023-05-27T07:44:19;8.53;;;4.97;;
15679;SDS011;15488;48.114;11.532;2023-05-27T07:46:46;6.40;;;5.10;;
15679;SDS011;15488;48.114;11.532;2023-05-27T07:49:13;8.67;;;4.80;;
15679;SDS011;15488;48.114;11.532;2023-05-27T07:51:41;9.23;;;5.17;;
15679;SDS011;15488;48.114;11.532;2023-05-27T07:54:09;7.50;;;4.47;;
15679;SDS011;15488;48.114;11.532;2023-05-27T07:56:37;7.73;;;4.50;;
15679;SDS011;15488;48.114;11.532;2023-05-27T07:59:05;10.03;;;5.03;;
15679;SDS011;15488;48.114;11.532;2023-05-27T08:01:32;8.33;;;4.80;;
15679;SDS011;15488;48.114;11.532;2023-05-27T08:04:00;7.97;;;4.87;;
15679;SDS011;15488;48.114;11.532;2023-05-27T08:06:27;6.90;;;4.43;;
15679;SDS011;15488;48.114;11.532;2023-05-27T08:08:55;7.97;;;4.63;;
15679;SDS011;15488;48.114;11.532;2023-05-27T08:11:22;6.93;;;4.13;;
15679;SDS011;15488;48.114;11.532;2023-05-27T08:13:52;6.00;;;4.30;;
15679;SDS011;15488;48.114;11.532;2023-05-27T08:16:19;7.07;;;3.97;;
15679;SDS011;15488;48.114;11.532;2023-05-27T08:18:47;7.00;;;4.20;;
15679;SDS011;15488;48.114;11.532;2023-05-27T08:21:16;6.40;;;4.57;;
15679;SDS011;15488;48.114;11.532;2023-05-27T08:23:43;8.83;;;4.60;;
15679;SDS011;15488;48.114;11.532;2023-05-27T08:26:11;7.27;;;4.73;;
15679;SDS011;15488;48.114;11.532;2023-05-27T08:28:38;7.50;;;4.50;;
15679;SDS011;15488;48.114;11.532;2023-05-27T08:31:07;7.40;;;4.60;;
15679;SDS011;15488;48.114;11.532;2023-05-27T08:33:35;7.03;;;4.37;;
15679;SDS011;15488;48.114;11.532;2023-05-27T08:36:02;8.33;;;4.20;;
15679;SDS011;15488;48.114;11.532;2023-05-27T08:38:30;6.63;;;4.57;;
15679;SDS011;15488;48.114;11.532;2023-05-27T08:40:57;6.83;;;4.43;;
15679;SDS011;15488;48.114;11.532;2023-05-27T08:43:25;7.20;;;4.37;;
15679;SDS011;15488;48.114;11.532;2023-05-27T08:45:53;5.27;;;4.20;;
15679;SDS011;15488;48.114;11.532;2023-05-27T08:48:22;6.73;;;4.60;;
15679;SDS011;15488;48.114;11.532;2023-05-27T08:50:51;6.93;;;4.50;;
15679;SDS011;15488;48.114;11.532;2023-05-27T08:53:19;6.70;;;4.40;;
15679;SDS011;15488;48.114;11.532;2023-05-27T08:55:47;6.50;;;4.37;;
15679;SDS011;15488;48.114;11.532;2023-05-27T08:58:17;5.50;;;4.20;;
15679;SDS011;15488;48.114;11.532;2023-05-27T09:00:46;6.83;;;4.47;;
15679;SDS011;15488;48.114;11.532;2023-05-27T09:03:14;8.87;;;4.70;;
15679;SDS011;15488;48.114;11.532;2023-05-27T09:05:43;9.47;;;5.27;;
15679;SDS011;15488;48.114;11.532;2023-05-27T09:08:10;6.30;;;4.43;;
15679;SDS011;15488;48.114;11.532;2023-05-27T09:10:39;7.27;;;4.70;;
15679;SDS011;15488;48.114;11.532;2023-05-27T09:13:08;10.63;;;5.47;;
15679;SDS011;15488;48.114;11.532;2023-05-27T09:15:35;6.70;;;5.20;;
15679;SDS011;15488;48.114;11.532;2023-05-27T09:18:05;7.07;;;5.00;;
15679;SDS011;15488;48.114;11.532;2023-05-27T09:20:32;9.00;;;5.30;;
15679;SDS011;15488;48.114;11.532;2023-05-27T09:23:02;7.87;;;4.93;;
15679;SDS011;15488;48.114;11.532;2023-05-27T09:25:30;7.47;;;5.27;;
15679;SDS011;15488;48.114;11.532;2023-05-27T09:27:58;5.70;;;4.80;;
15679;SDS011;15488;48.114;11.532;2023-05-27T09:30:25;7.37;;;4.97;;
15679;SDS011;15488;48.114;11.532;2023-05-27T09:33:00;6.77;;;5.30;;
15679;SDS011;15488;48.114;11.532;2023-05-27T09:35:29;7.13;;;5.07;;
15679;SDS011;15488;48.114;11.532;2023-05-27T09:38:05;8.73;;;5.30;;
15679;SDS011;15488;48.114;11.532;2023-05-27T09:40:35;6.27;;;4.70;;
15679;SDS011;15488;48.114;11.532;2023-05-27T09:43:03;5.20;;;4.60;;
15679;SDS011;15488;48.114;11.532;2023-05-27T09:45:31;7.10;;;4.73;;
15679;SDS011;15488;48.114;11.532;2023-05-27T09:48:00;7.43;;;5.23;;
15679;SDS011;15488;48.114;11.532;2023-05-27T09:50:29;7.53;;;5.23;;
15679;SDS011;15488;48.114;11.532;2023-05-27T09:52:57;6.90;;;5.20;;
15679;SDS011;15488;48.114;11.532;2023-05-27T09:55:35;6.87;;;5.33;;
15679;SDS011;15488;48.114;11.532;2023-05-27T09:58:02;6.97;;;4.83;;
15679;SDS011;15488;48.114;11.532;2023-05-27T10:00:32;7.17;;;4.60;;
15679;SDS011;15488;48.114;11.532;2023-05-27T10:03:01;6.90;;;4.97;;
15679;SDS011;15488;48.114;11.532;2023-05-27T10:05:31;7.43;;;5.00;;
15679;SDS011;15488;48.114;11.532;2023-05-27T10:07:59;8.07;;;5.53;;
15679;SDS011;15488;48.114;11.532;2023-05-27T10:10:28;7.30;;;5.27;;
15679;SDS011;15488;48.114;11.532;2023-05-27T10:12:55;8.17;;;5.37;;
15679;SDS011;15488;48.114;11.532;2023-05-27T10:15:26;7.40;;;5.47;;
15679;SDS011;15488;48.114;11.532;2023-05-27T10:17:55;6.83;;;5.60;;
15679;SDS011;15488;48.114;11.532;2023-05-27T10:20:26;6.33;;;4.90;;
15679;SDS011;15488;48.114;11.532;2023-05-27T10:22:54;8.00;;;5.23;;
15679;SDS011;15488;48.114;11.532;2023-05-27T10:25:25;8.93;;;5.97;;
15679;SDS011;15488;48.114;11.532;2023-05-27T10:28:03;7.43;;;5.37;;
15679;SDS011;15488;48.114;11.532;2023-05-27T10:30:41;9.37;;;5.70;;
15679;SDS011;15488;48.114;11.532;2023-05-27T10:33:10;7.70;;;4.93;;
15679;SDS011;15488;48.114;11.532;2023-05-27T10:35:40;7.33;;;5.03;;
15679;SDS011;15488;48.114;11.532;2023-05-27T10:38:13;8.00;;;5.07;;
15679;SDS011;15488;48.114;11.532;2023-05-27T10:40:43;7.33;;;4.70;;
15679;SDS011;15488;48.114;11.532;2023-05-27T10:43:16;6.90;;;5.10;;
15679;SDS011;15488;48.114;11.532;2023-05-27T10:45:44;7.43;;;5.20;;
15679;SDS011;15488;48.114;11.532;2023-05-27T10:48:15;6.00;;;4.50;;
15679;SDS011;15488;48.114;11.532;2023-05-27T10:50:50;7.60;;;4.73;;
15679;SDS011;15488;48.114;11.532;2023-05-27T10:53:19;6.23;;;4.40;;
15679;SDS011;15488;48.114;11.532;2023-05-27T10:55:48;7.77;;;4.60;;
15679;SDS011;15488;48.114;11.532;2023-05-27T10:58:16;8.57;;;4.80;;
15679;SDS011;15488;48.114;11.532;2023-05-27T11:00:44;5.47;;;4.63;;
15679;SDS011;15488;48.114;11.532;2023-05-27T11:03:17;6.70;;;4.77;;
15679;SDS011;15488;48.114;11.532;2023-05-27T11:05:56;6.30;;;5.07;;
15679;SDS011;15488;48.114;11.532;2023-05-27T11:08:27;7.67;;;5.20;;
15679;SDS011;15488;48.114;11.532;2023-05-27T11:11:00;6.97;;;4.90;;
15679;SDS011;15488;48.114;11.532;2023-05-27T11:13:31;7.03;;;4.93;;
15679;SDS011;15488;48.114;11.532;2023-05-27T11:16:00;6.77;;;5.00;;
15679;SDS011;15488;48.114;11.532;2023-05-27T11:18:37;6.57;;;4.80;;
15679;SDS011;15488;48.114;11.532;2023-05-27T11:21:06;7.07;;;5.20;;
15679;SDS011;15488;48.114;11.532;2023-05-27T11:23:38;7.93;;;5.00;;
15679;SDS011;15488;48.114;11.532;2023-05-27T11:26:13;7.40;;;5.30;;
15679;SDS011;15488;48.114;11.532;2023-05-27T11:28:45;7.40;;;4.43;;
15679;SDS011;15488;48.114;11.532;2023-05-27T11:31:13;7.60;;;5.40;;
15679;SDS011;15488;48.114;11.532;2023-05-27T11:33:41;8.90;;;5.60;;
15679;SDS011;15488;48.114;11.532;2023-05-27T11:36:11;7.83;;;5.37;;
15679;SDS011;15488;48.114;11.532;2023-05-27T11:38:49;6.83;;;5.10;;
15679;SDS011;15488;48.114;11.532;2023-05-27T11:41:22;7.43;;;5.20;;
15679;SDS011;15488;48.114;11.532;2023-05-27T11:43:52;5.77;;;4.77;;
15679;SDS011;15488;48.114;11.532;2023-05-27T11:46:22;7.67;;;4.80;;
15679;SDS011;15488;48.114;11.532;2023-05-27T11:48:50;6.60;;;4.70;;
15679;SDS011;15488;48.114;11.532;2023-05-27T11:51:25;7.80;;;5.20;;
15679;SDS011;15488;48.114;11.532;2023-05-27T11:53:55;5.73;;;5.10;;
15679;SDS011;15488;48.114;11.532;2023-05-27T11:56:25;5.33;;;4.83;;
15679;SDS011;15488;48.114;11.532;2023-05-27T11:58:53;5.23;;;4.33;;
15679;SDS011;15488;48.114;11.532;2023-05-27T12:01:21;6.53;;;4.53;;
15679;SDS011;15488;48.114;11.532;2023-05-27T12:03:50;8.90;;;5.10;;
15679;SDS011;15488;48.114;11.532;2023-05-27T12:06:17;5.90;;;4.30;;
15679;SDS011;15488;48.114;11.532;2023-05-27T12:08:45;8.65;;;4.70;;
15679;SDS011;15488;48.114;11.532;2023-05-27T12:11:12;6.63;;;4.75;;
15679;SDS011;15488;48.114;11.532;2023-05-27T12:13:41;6.20;;;4.60;;
15679;SDS011;15488;48.114;11.532;2023-05-27T12:16:09;5.70;;;4.55;;
15679;SDS011;15488;48.114;11.532;2023-05-27T12:18:37;5.63;;;4.80;;
15679;SDS011;15488;48.114;11.532;2023-05-27T12:21:06;7.03;;;4.40;;
15679;SDS011;15488;48.114;11.532;2023-05-27T12:23:33;8.10;;;4.43;;
15679;SDS011;15488;48.114;11.532;2023-05-27T12:26:01;7.15;;;4.40;;
15679;SDS011;15488;48.114;11.532;2023-05-27T12:28:29;7.03;;;5.05;;
15679;SDS011;15488;48.114;11.532;2023-05-27T12:30:57;5.45;;;4.18;;
15679;SDS011;15488;48.114;11.532;2023-05-27T12:33:25;6.05;;;3.90;;
15679;SDS011;15488;48.114;11.532;2023-05-27T12:35:53;7.78;;;4.28;;
15679;SDS011;15488;48.114;11.532;2023-05-27T12:38:20;5.38;;;4.20;;
15679;SDS011;15488;48.114;11.532;2023-05-27T12:40:47;6.45;;;4.60;;
15679;SDS011;15488;48.114;11.532;2023-05-27T12:43:15;6.47;;;4.28;;
15679;SDS011;15488;48.114;11.532;2023-05-27T12:45:43;5.43;;;4.13;;
15679;SDS011;15488;48.114;11.532;2023-05-27T12:48:12;7.93;;;4.15;;
15679;SDS011;15488;48.114;11.532;2023-05-27T12:50:40;4.70;;;4.20;;
15679;SDS011;15488;48.114;11.532;2023-05-27T12:53:08;5.35;;;4.25;;
15679;SDS011;15488;48.114;11.532;2023-05-27T12:55:35;5.55;;;4.32;;
15679;SDS011;15488;48.114;11.532;2023-05-27T12:58:03;4.80;;;4.30;;
15679;SDS011;15488;48.114;11.532;2023-05-27T13:00:31;5.28;;;4.53;;
15679;SDS011;15488;48.114;11.532;2023-05-27T13:02:59;4.95;;;3.97;;
15679;SDS011;15488;48.114;11.532;2023-05-27T13:05:28;6.07;;;4.78;;
15679;SDS011;15488;48.114;11.532;2023-05-27T13:07:57;5.07;;;4.03;;
15679;SDS011;15488;48.114;11.532;2023-05-27T13:10:25;5.45;;;4.15;;
15679;SDS011;15488;48.114;11.532;2023-05-27T13:12:53;5.30;;;4.40;;
15679;SDS011;15488;48.114;11.532;2023-05-27T13:15:20;6.25;;;4.38;;
15679;SDS011;15488;48.114;11.532;2023-05-27T13:17:49;6.03;;;4.22;;
15679;SDS011;15488;48.114;11.532;2023-05-27T13:20:18;5.80;;;4.20;;
15679;SDS011;15488;48.114;11.532;2023-05-27T13:22:47;5.35;;;4.22;;
15679;SDS011;15488;48.114;11.532;2023-05-27T13:25:15;6.15;;;4.28;;
15679;SDS011;15488;48.114;11.532;2023-05-27T13:27:42;5.18;;;4.25;;
15679;SDS011;15488;48.114;11.532;2023-05-27T13:30:11;6.30;;;4.30;;
15679;SDS011;15488;48.114;11.532;2023-05-27T13:32:39;5.75;;;4.60;;
15679;SDS011;15488;48.114;11.532;2023-05-27T13:35:08;5.63;;;4.82;;
15679;SDS011;15488;48.114;11.532;2023-05-27T13:37:36;5.53;;;5.03;;
15679;SDS011;15488;48.114;11.532;2023-05-27T13:40:06;5.50;;;4.97;;
15679;SDS011;15488;48.114;11.532;2023-05-27T13:42:35;5.30;;;4.80;;
15679;SDS011;15488;48.114;11.532;2023-05-27T13:45:03;4.63;;;4.22;;
15679;SDS011;15488;48.114;11.532;2023-05-27T13:47:31;5.38;;;4.30;;
15679;SDS011;15488;48.114;11.532;2023-05-27T13:49:59;5.60;;;5.10;;
15679;SDS011;15488;48.114;11.532;2023-05-27T13:52:26;7.65;;;5.60;;
15679;SDS011;15488;48.114;11.532;2023-05-27T13:54:53;6.00;;;5.40;;
15679;SDS011;15488;48.114;11.532;2023-05-27T13:57:22;6.38;;;5.85;;
15679;SDS011;15488;48.114;11.532;2023-05-27T13:59:50;6.93;;;6.32;;
15679;SDS011;15488;48.114;11.532;2023-05-27T14:02:17;7.35;;;6.28;;
15679;SDS011;15488;48.114;11.532;2023-05-27T14:04:45;6.63;;;6.13;;
15679;SDS011;15488;48.114;11.532;2023-05-27T14:07:12;6.32;;;5.72;;
15679;SDS011;15488;48.114;11.532;2023-05-27T14:09:40;6.72;;;6.13;;
15679;SDS011;15488;48.114;11.532;2023-05-27T14:12:07;6.75;;;6.15;;
15679;SDS011;15488;48.114;11.532;2023-05-27T14:14:36;6.32;;;5.47;;
15679;SDS011;15488;48.114;11.532;2023-05-27T14:17:04;6.20;;;5.70;;
15679;SDS011;15488;48.114;11.532;2023-05-27T14:19:32;6.38;;;5.88;;
15679;SDS011;15488;48.114;11.532;2023-05-27T14:22:00;6.30;;;5.80;;
15679;SDS011;15488;48.114;11.532;2023-05-27T14:24:27;6.78;;;6.20;;
15679;SDS011;15488;48.114;11.532;2023-05-27T14:26:56;6.93;;;6.05;;
15679;SDS011;15488;48.114;11.532;2023-05-27T14:29:24;6.13;;;5.63;;
15679;SDS011;15488;48.114;11.532;2023-05-27T14:31:52;6.47;;;5.57;;
15679;SDS011;15488;48.114;11.532;2023-05-27T14:34:20;6.10;;;5.70;;
15679;SDS011;15488;48.114;11.532;2023-05-27T14:36:47;5.90;;;5.40;;
15679;SDS011;15488;48.114;11.532;2023-05-27T14:39:15;6.47;;;5.88;;
15679;SDS011;15488;48.114;11.532;2023-05-27T14:41:43;5.80;;;5.40;;